Private Wetterstation Sandau
Wetterdaten: Dienstag, 15.01.2013
Datum Zeit Temp. A. Feuchte A. Luftdruck Regen Wind Richtung Richtung Taupunkt Windchill
15.01.2013 00:01 -3,6 C 89 % 1012,4 hPa 0,0 l/m 2,2 km/h (1 Bft) S-SO 157 -5,1 C -3,6 C
15.01.2013 00:06 -3,6 C 89 % 1012,2 hPa 0,0 l/m 1,4 km/h (1 Bft) S-SO 157 -5,1 C -3,6 C
15.01.2013 00:11 -3,5 C 90 % 1012,3 hPa 0,0 l/m 0,0 km/h (0 Bft) S-SO 157 -4,9 C -3,5 C
15.01.2013 00:16 -3,5 C 90 % 1012,2 hPa 0,0 l/m 1,4 km/h (1 Bft) S 180 -4,9 C -3,5 C
15.01.2013 00:21 -3,4 C 90 % 1012,3 hPa 0,0 l/m 3,2 km/h (1 Bft) S-SO 157 -4,8 C -3,4 C
15.01.2013 00:26 -3,4 C 89 % 1012,3 hPa 0,0 l/m 1,8 km/h (1 Bft) S-SO 157 -4,9 C -3,4 C
15.01.2013 00:31 -3,4 C 90 % 1012,0 hPa 0,0 l/m 0,0 km/h (0 Bft) S 180 -4,8 C -3,4 C
15.01.2013 00:36 -3,4 C 90 % 1012,2 hPa 0,0 l/m 1,1 km/h (1 Bft) S-SO 157 -4,8 C -3,4 C
15.01.2013 00:41 -3,4 C 90 % 1012,1 hPa 0,0 l/m 0,0 km/h (0 Bft) S-SO 157 -4,8 C -3,4 C
15.01.2013 00:46 -3,4 C 90 % 1012,2 hPa 0,0 l/m 0,0 km/h (0 Bft) S 180 -4,8 C -3,4 C
15.01.2013 00:51 -3,3 C 90 % 1012,1 hPa 0,0 l/m 2,2 km/h (1 Bft) S-SO 157 -4,7 C -3,3 C
15.01.2013 00:56 -3,3 C 90 % 1012,1 hPa 0,0 l/m 2,5 km/h (1 Bft) S 180 -4,7 C -3,3 C
15.01.2013 01:01 -3,3 C 90 % 1012,2 hPa 0,0 l/m 1,1 km/h (1 Bft) S 180 -4,7 C -3,3 C
15.01.2013 01:06 -3,2 C 90 % 1012,1 hPa 0,0 l/m 0,0 km/h (0 Bft) SO 135 -4,6 C -3,2 C
15.01.2013 01:11 -3,2 C 90 % 1012,2 hPa 0,0 l/m 1,1 km/h (1 Bft) SW 225 -4,6 C -3,2 C
15.01.2013 01:16 -3,2 C 90 % 1012,1 hPa 0,0 l/m 2,5 km/h (1 Bft) S-SW 202 -4,6 C -3,2 C
15.01.2013 01:21 -3,2 C 89 % 1012,0 hPa 0,0 l/m 4,3 km/h (1 Bft) S-SO 157 -4,7 C -3,2 C
15.01.2013 01:26 -3,2 C 89 % 1012,1 hPa 0,0 l/m 5,0 km/h (1 Bft) S-SW 202 -4,7 C -5,2 C
15.01.2013 01:31 -3,2 C 89 % 1012,1 hPa 0,0 l/m 0,0 km/h (0 Bft) S-SW 202 -4,7 C -3,2 C
15.01.2013 01:36 -3,2 C 89 % 1012,0 hPa 0,0 l/m 2,9 km/h (1 Bft) S-SW 202 -4,7 C -3,2 C
15.01.2013 01:41 -3,3 C 89 % 1012,1 hPa 0,0 l/m 2,5 km/h (1 Bft) S-SO 157 -4,8 C -3,3 C
15.01.2013 01:46 -3,3 C 89 % 1012,2 hPa 0,0 l/m 1,4 km/h (1 Bft) S 180 -4,8 C -3,3 C
15.01.2013 01:51 -3,3 C 89 % 1012,4 hPa 0,0 l/m 6,5 km/h (2 Bft) S-SW 202 -4,8 C -6,0 C
15.01.2013 01:56 -3,3 C 89 % 1012,1 hPa 0,0 l/m 2,5 km/h (1 Bft) S-SW 202 -4,8 C -3,3 C
15.01.2013 02:01 -3,3 C 89 % 1012,3 hPa 0,0 l/m 1,8 km/h (1 Bft) S 180 -4,8 C -3,3 C
15.01.2013 02:06 -3,2 C 89 % 1012,4 hPa 0,0 l/m 5,0 km/h (1 Bft) S 180 -4,7 C -5,2 C
15.01.2013 02:11 -3,2 C 89 % 1012,4 hPa 0,0 l/m 1,1 km/h (1 Bft) S 180 -4,7 C -3,2 C
15.01.2013 02:16 -3,2 C 89 % 1012,4 hPa 0,0 l/m 11,2 km/h (2 Bft) W-SW 247 -4,7 C -7,5 C
15.01.2013 02:21 -3,2 C 88 % 1012,5 hPa 0,0 l/m 4,7 km/h (1 Bft) SW 225 -4,9 C -5,1 C
15.01.2013 02:26 -3,2 C 88 % 1012,5 hPa 0,0 l/m 2,2 km/h (1 Bft) S-SO 157 -4,9 C -3,2 C
15.01.2013 02:31 -3,2 C 88 % 1012,4 hPa 0,0 l/m 1,8 km/h (1 Bft) S-SW 202 -4,9 C -3,2 C
15.01.2013 02:36 -3,2 C 88 % 1012,5 hPa 0,0 l/m 0,0 km/h (0 Bft) S-SW 202 -4,9 C -3,2 C
15.01.2013 02:41 -3,2 C 88 % 1012,6 hPa 0,0 l/m 4,7 km/h (1 Bft) S-SW 202 -4,9 C -5,1 C
15.01.2013 02:46 -3,2 C 88 % 1012,2 hPa 0,0 l/m 1,4 km/h (1 Bft) W-SW 247 -4,9 C -3,2 C
15.01.2013 02:51 -3,2 C 88 % 1012,3 hPa 0,0 l/m 3,6 km/h (1 Bft) S-SW 202 -4,9 C -3,2 C
15.01.2013 02:56 -3,2 C 88 % 1012,4 hPa 0,0 l/m 2,2 km/h (1 Bft) S 180 -4,9 C -3,2 C
15.01.2013 03:01 -3,2 C 88 % 1012,6 hPa 0,0 l/m 4,0 km/h (1 Bft) SW 225 -4,9 C -3,2 C
15.01.2013 03:06 -3,2 C 88 % 1012,6 hPa 0,0 l/m 0,0 km/h (0 Bft) W 270 -4,9 C -3,2 C
15.01.2013 03:11 -3,2 C 88 % 1012,4 hPa 0,0 l/m 2,9 km/h (1 Bft) W-SW 247 -4,9 C -3,2 C
15.01.2013 03:16 -3,2 C 88 % 1012,4 hPa 0,0 l/m 3,6 km/h (1 Bft) W-SW 247 -4,9 C -3,2 C
15.01.2013 03:21 -3,3 C 88 % 1012,4 hPa 0,0 l/m 6,1 km/h (2 Bft) W-SW 247 -5,0 C -5,9 C
15.01.2013 03:26 -3,4 C 88 % 1012,4 hPa 0,0 l/m 2,9 km/h (1 Bft) W 270 -5,1 C -3,4 C
15.01.2013 03:31 -3,4 C 88 % 1012,2 hPa 0,0 l/m 6,8 km/h (2 Bft) W 270 -5,1 C -6,3 C
15.01.2013 03:36 -3,4 C 88 % 1012,3 hPa 0,0 l/m 8,3 km/h (2 Bft) SW 225 -5,1 C -6,8 C
15.01.2013 03:41 -3,5 C 88 % 1012,2 hPa 0,0 l/m 10,4 km/h (2 Bft) W-SW 247 -5,2 C -7,6 C
15.01.2013 03:46 -3,6 C 88 % 1012,2 hPa 0,0 l/m 7,2 km/h (2 Bft) SW 225 -5,3 C -6,7 C
15.01.2013 03:51 -3,7 C 88 % 1012,2 hPa 0,0 l/m 0,0 km/h (0 Bft) S 180 -5,4 C -3,7 C
15.01.2013 03:56 -3,8 C 88 % 1012,1 hPa 0,0 l/m 3,6 km/h (1 Bft) S 180 -5,5 C -3,8 C
15.01.2013 04:01 -3,9 C 87 % 1012,2 hPa 0,0 l/m 2,9 km/h (1 Bft) S-SO 157 -5,7 C -3,9 C
15.01.2013 04:06 -4,1 C 88 % 1012,0 hPa 0,0 l/m 0,0 km/h (0 Bft) S-SO 157 -5,8 C -4,1 C
15.01.2013 04:11 -4,1 C 88 % 1012,1 hPa 0,0 l/m 0,0 km/h (0 Bft) S 180 -5,8 C -4,1 C
15.01.2013 04:16 -4,1 C 88 % 1012,0 hPa 0,0 l/m 1,4 km/h (1 Bft) S-SO 157 -5,8 C -4,1 C
15.01.2013 04:21 -4,1 C 88 % 1012,0 hPa 0,0 l/m 0,0 km/h (0 Bft) S-SO 157 -5,8 C -4,1 C
15.01.2013 04:26 -4,1 C 88 % 1011,9 hPa 0,0 l/m 0,0 km/h (0 Bft) S-SO 157 -5,8 C -4,1 C
15.01.2013 04:31 -4,1 C 88 % 1011,8 hPa 0,0 l/m 0,0 km/h (0 Bft) S-SO 157 -5,8 C -4,1 C
15.01.2013 04:36 -4,2 C 88 % 1011,6 hPa 0,0 l/m 0,0 km/h (0 Bft) S-SO 157 -5,9 C -4,2 C
15.01.2013 04:41 -4,3 C 88 % 1011,7 hPa 0,0 l/m 0,0 km/h (0 Bft) S-SO 157 -6,0 C -4,3 C
15.01.2013 04:46 -4,5 C 88 % 1011,6 hPa 0,0 l/m 2,2 km/h (1 Bft) S-SO 157 -6,2 C -4,5 C
15.01.2013 04:51 -4,7 C 88 % 1011,7 hPa 0,0 l/m 0,0 km/h (0 Bft) S-SO 157 -6,4 C -4,7 C
15.01.2013 04:56 -4,7 C 88 % 1011,6 hPa 0,0 l/m 4,0 km/h (1 Bft) W-SW 247 -6,4 C -4,7 C
15.01.2013 05:01 -4,7 C 88 % 1011,6 hPa 0,0 l/m 0,0 km/h (0 Bft) W-SW 247 -6,4 C -4,7 C
15.01.2013 05:06 -4,7 C 89 % 1011,7 hPa 0,0 l/m 0,0 km/h (0 Bft) W-SW 247 -6,2 C -4,7 C
15.01.2013 05:11 -4,7 C 89 % 1011,5 hPa 0,0 l/m 4,0 km/h (1 Bft) W 270 -6,2 C -4,7 C
15.01.2013 05:16 -4,7 C 89 % 1011,5 hPa 0,0 l/m 0,0 km/h (0 Bft) W-SW 247 -6,2 C -4,7 C
15.01.2013 05:21 -4,7 C 89 % 1011,3 hPa 0,0 l/m 0,0 km/h (0 Bft) W-SW 247 -6,2 C -4,7 C
15.01.2013 05:26 -4,7 C 89 % 1011,5 hPa 0,0 l/m 0,0 km/h (0 Bft) W-SW 247 -6,2 C -4,7 C
15.01.2013 05:31 -4,7 C 89 % 1011,4 hPa 0,0 l/m 1,4 km/h (1 Bft) SW 225 -6,2 C -4,7 C
15.01.2013 05:36 -4,7 C 89 % 1011,4 hPa 0,0 l/m 5,0 km/h (1 Bft) W-SW 247 -6,2 C -6,9 C
15.01.2013 05:41 -4,7 C 89 % 1011,4 hPa 0,0 l/m 1,4 km/h (1 Bft) W-SW 247 -6,2 C -4,7 C
15.01.2013 05:46 -4,7 C 89 % 1011,3 hPa 0,0 l/m 3,6 km/h (1 Bft) SW 225 -6,2 C -4,7 C
15.01.2013 05:51 -4,7 C 89 % 1011,4 hPa 0,0 l/m 4,0 km/h (1 Bft) SW 225 -6,2 C -4,7 C
15.01.2013 05:56 -4,7 C 89 % 1011,3 hPa 0,0 l/m 0,0 km/h (0 Bft) S-SW 202 -6,2 C -4,7 C
15.01.2013 06:01 -4,7 C 89 % 1011,4 hPa 0,0 l/m 0,0 km/h (0 Bft) SW 225 -6,2 C -4,7 C
15.01.2013 06:06 -4,6 C 90 % 1011,4 hPa 0,0 l/m 0,0 km/h (0 Bft) SW 225 -6,0 C -4,6 C
15.01.2013 06:11 -4,6 C 90 % 1011,3 hPa 0,0 l/m 1,4 km/h (1 Bft) S-SW 202 -6,0 C -4,6 C
15.01.2013 06:16 -4,5 C 90 % 1011,6 hPa 0,0 l/m 4,0 km/h (1 Bft) S 180 -5,9 C -4,5 C
15.01.2013 06:21 -4,4 C 90 % 1011,5 hPa 0,0 l/m 1,4 km/h (1 Bft) S 180 -5,8 C -4,4 C
15.01.2013 06:26 -4,4 C 90 % 1011,3 hPa 0,0 l/m 0,0 km/h (0 Bft) S-SO 157 -5,8 C -4,4 C
15.01.2013 06:31 -4,5 C 90 % 1011,5 hPa 0,0 l/m 0,0 km/h (0 Bft) S-SO 157 -5,9 C -4,5 C
15.01.2013 06:36 -4,5 C 90 % 1011,5 hPa 0,0 l/m 2,5 km/h (1 Bft) S-SO 157 -5,9 C -4,5 C
15.01.2013 06:41 -4,6 C 90 % 1011,6 hPa 0,0 l/m 5,0 km/h (1 Bft) S-SO 157 -6,0 C -6,8 C
15.01.2013 06:46 -4,7 C 90 % 1011,6 hPa 0,0 l/m 0,0 km/h (0 Bft) S-SO 157 -6,1 C -4,7 C
15.01.2013 06:51 -4,8 C 90 % 1011,6 hPa 0,0 l/m 2,9 km/h (1 Bft) S-SO 157 -6,2 C -4,8 C
15.01.2013 06:56 -4,8 C 90 % 1011,4 hPa 0,0 l/m 2,2 km/h (1 Bft) S-SO 157 -6,2 C -4,8 C
15.01.2013 07:01 -4,8 C 90 % 1011,6 hPa 0,0 l/m 0,0 km/h (0 Bft) S-SO 157 -6,2 C -4,8 C
15.01.2013 07:06 -4,9 C 90 % 1011,6 hPa 0,0 l/m 5,8 km/h (2 Bft) S-SO 157 -6,3 C -7,6 C
15.01.2013 07:11 -4,9 C 90 % 1011,3 hPa 0,0 l/m 2,5 km/h (1 Bft) S-SO 157 -6,3 C -4,9 C
15.01.2013 07:16 -4,9 C 90 % 1011,4 hPa 0,0 l/m 4,3 km/h (1 Bft) SO 135 -6,3 C -4,9 C
15.01.2013 07:21 -4,9 C 90 % 1011,6 hPa 0,0 l/m 3,2 km/h (1 Bft) SO 135 -6,3 C -4,9 C
15.01.2013 07:26 -4,9 C 90 % 1011,3 hPa 0,0 l/m 2,5 km/h (1 Bft) S-SO 157 -6,3 C -4,9 C
15.01.2013 07:31 -4,9 C 90 % 1011,6 hPa 0,0 l/m 6,8 km/h (2 Bft) S 180 -6,3 C -8,0 C
15.01.2013 07:36 -4,9 C 90 % 1011,5 hPa 0,0 l/m 1,4 km/h (1 Bft) SO 135 -6,3 C -4,9 C
15.01.2013 07:41 -4,9 C 90 % 1011,7 hPa 0,0 l/m 7,2 km/h (2 Bft) S-SO 157 -6,3 C -8,2 C
15.01.2013 07:46 -4,9 C 90 % 1011,6 hPa 0,0 l/m 2,9 km/h (1 Bft) SO 135 -6,3 C -4,9 C
15.01.2013 07:51 -5,0 C 90 % 1011,6 hPa 0,0 l/m 3,6 km/h (1 Bft) S-SO 157 -6,4 C -5,0 C
15.01.2013 07:56 -5,0 C 90 % 1011,6 hPa 0,0 l/m 0,0 km/h (0 Bft) SO 135 -6,4 C -5,0 C
15.01.2013 08:01 -5,0 C 90 % 1011,5 hPa 0,0 l/m 4,0 km/h (1 Bft) S 180 -6,4 C -5,0 C
15.01.2013 08:06 -4,9 C 90 % 1011,5 hPa 0,0 l/m 0,0 km/h (0 Bft) SO 135 -6,3 C -4,9 C
15.01.2013 08:11 -4,9 C 90 % 1011,5 hPa 0,0 l/m 6,1 km/h (2 Bft) SO 135 -6,3 C -7,7 C
15.01.2013 08:16 -4,9 C 90 % 1011,6 hPa 0,0 l/m 6,5 km/h (2 Bft) O-SO 112 -6,3 C -7,9 C
15.01.2013 08:21 -4,9 C 90 % 1011,5 hPa 0,0 l/m 4,0 km/h (1 Bft) S-SO 157 -6,3 C -4,9 C
15.01.2013 08:26 -4,9 C 90 % 1011,5 hPa 0,0 l/m 1,8 km/h (1 Bft) SO 135 -6,3 C -4,9 C
15.01.2013 08:31 -4,8 C 90 % 1011,3 hPa 0,0 l/m 5,0 km/h (1 Bft) SO 135 -6,2 C -7,0 C
15.01.2013 08:36 -4,8 C 90 % 1011,4 hPa 0,0 l/m 2,9 km/h (1 Bft) S 180 -6,2 C -4,8 C
15.01.2013 08:41 -4,8 C 90 % 1011,5 hPa 0,0 l/m 0,0 km/h (0 Bft) O-SO 112 -6,2 C -4,8 C
15.01.2013 08:46 -4,8 C 90 % 1011,4 hPa 0,0 l/m 8,3 km/h (2 Bft) S-SO 157 -6,2 C -8,5 C
15.01.2013 08:51 -4,8 C 90 % 1011,5 hPa 0,0 l/m 2,5 km/h (1 Bft) S-SO 157 -6,2 C -4,8 C
15.01.2013 08:56 -4,8 C 90 % 1011,6 hPa 0,0 l/m 2,9 km/h (1 Bft) SO 135 -6,2 C -4,8 C
15.01.2013 09:01 -4,8 C 90 % 1011,4 hPa 0,0 l/m 8,6 km/h (2 Bft) S-SO 157 -6,2 C -8,6 C
15.01.2013 09:06 -4,8 C 90 % 1011,6 hPa 0,0 l/m 4,0 km/h (1 Bft) S-SO 157 -6,2 C -4,8 C
15.01.2013 09:11 -4,8 C 90 % 1011,5 hPa 0,0 l/m 3,2 km/h (1 Bft) S-SO 157 -6,2 C -4,8 C
15.01.2013 09:16 -4,7 C 90 % 1011,6 hPa 0,0 l/m 4,0 km/h (1 Bft) S 180 -6,1 C -4,7 C
15.01.2013 09:21 -4,7 C 91 % 1011,7 hPa 0,0 l/m 6,1 km/h (2 Bft) SO 135 -5,9 C -7,5 C
15.01.2013 09:26 -4,7 C 91 % 1011,7 hPa 0,0 l/m 10,1 km/h (2 Bft) S 180 -5,9 C -9,0 C
15.01.2013 09:31 -4,7 C 91 % 1011,6 hPa 0,0 l/m 4,7 km/h (1 Bft) SO 135 -5,9 C -6,8 C
15.01.2013 09:36 -4,6 C 91 % 1011,5 hPa 0,0 l/m 4,0 km/h (1 Bft) SO 135 -5,8 C -4,6 C
15.01.2013 09:41 -4,5 C 91 % 1011,5 hPa 0,0 l/m 2,9 km/h (1 Bft) SO 135 -5,7 C -4,5 C
15.01.2013 09:46 -4,4 C 91 % 1011,5 hPa 0,0 l/m 6,5 km/h (2 Bft) SO 135 -5,6 C -7,3 C
15.01.2013 09:51 -4,4 C 91 % 1011,6 hPa 0,0 l/m 5,8 km/h (2 Bft) S-SO 157 -5,6 C -7,0 C
15.01.2013 09:56 -4,4 C 91 % 1011,6 hPa 0,0 l/m 5,0 km/h (1 Bft) SO 135 -5,6 C -6,6 C
15.01.2013 10:01 -4,4 C 91 % 1011,6 hPa 0,0 l/m 5,0 km/h (1 Bft) SO 135 -5,6 C -6,6 C
15.01.2013 10:06 -4,5 C 90 % 1011,6 hPa 0,0 l/m 2,2 km/h (1 Bft) O-SO 112 -5,9 C -4,5 C
15.01.2013 10:11 -4,4 C 90 % 1011,5 hPa 0,0 l/m 0,0 km/h (0 Bft) O-SO 112 -5,8 C -4,4 C
15.01.2013 10:16 -4,4 C 90 % 1011,6 hPa 0,0 l/m 3,6 km/h (1 Bft) O-SO 112 -5,8 C -4,4 C
15.01.2013 10:21 -4,4 C 90 % 1011,8 hPa 0,0 l/m 3,6 km/h (1 Bft) SO 135 -5,8 C -4,4 C
15.01.2013 10:26 -4,2 C 90 % 1012,0 hPa 0,0 l/m 0,0 km/h (0 Bft) S-SO 157 -5,6 C -4,2 C
15.01.2013 10:31 -4,1 C 90 % 1012,0 hPa 0,0 l/m 5,4 km/h (1 Bft) S-SO 157 -5,5 C -6,4 C
15.01.2013 10:36 -4,1 C 90 % 1011,9 hPa 0,0 l/m 1,4 km/h (1 Bft) S 180 -5,5 C -4,1 C
15.01.2013 10:41 -3,9 C 90 % 1011,9 hPa 0,0 l/m 4,0 km/h (1 Bft) S-SO 157 -5,3 C -3,9 C
15.01.2013 10:46 -3,8 C 89 % 1011,9 hPa 0,0 l/m 1,8 km/h (1 Bft) O-SO 112 -5,3 C -3,8 C
15.01.2013 10:51 -3,8 C 89 % 1011,9 hPa 0,0 l/m 0,0 km/h (0 Bft) SO 135 -5,3 C -3,8 C
15.01.2013 10:56 -3,7 C 89 % 1011,9 hPa 0,0 l/m 1,8 km/h (1 Bft) SO 135 -5,2 C -3,7 C
15.01.2013 11:01 -3,6 C 89 % 1011,8 hPa 0,0 l/m 0,0 km/h (0 Bft) SO 135 -5,1 C -3,6 C
15.01.2013 11:06 -3,6 C 89 % 1011,8 hPa 0,0 l/m 0,0 km/h (0 Bft) S-SO 157 -5,1 C -3,6 C
15.01.2013 11:11 -3,5 C 89 % 1011,7 hPa 0,0 l/m 1,8 km/h (1 Bft) SO 135 -5,0 C -3,5 C
15.01.2013 11:16 -3,5 C 88 % 1011,9 hPa 0,0 l/m 5,8 km/h (2 Bft) SO 135 -5,2 C -6,0 C
15.01.2013 11:21 -3,6 C 88 % 1011,8 hPa 0,0 l/m 3,6 km/h (1 Bft) O-SO 112 -5,3 C -3,6 C
15.01.2013 11:26 -3,5 C 88 % 1011,9 hPa 0,0 l/m 2,5 km/h (1 Bft) SO 135 -5,2 C -3,5 C
15.01.2013 11:31 -3,5 C 88 % 1011,8 hPa 0,0 l/m 5,8 km/h (2 Bft) SO 135 -5,2 C -6,0 C
15.01.2013 11:36 -3,4 C 88 % 1011,7 hPa 0,0 l/m 5,8 km/h (2 Bft) S-SO 157 -5,1 C -5,8 C
15.01.2013 11:41 -3,2 C 88 % 1011,7 hPa 0,0 l/m 1,8 km/h (1 Bft) SO 135 -4,9 C -3,2 C
15.01.2013 11:46 -3,1 C 88 % 1011,6 hPa 0,0 l/m 0,0 km/h (0 Bft) O-SO 112 -4,8 C -3,1 C
15.01.2013 11:51 -3,0 C 87 % 1011,5 hPa 0,0 l/m 7,6 km/h (2 Bft) O-SO 112 -4,9 C -6,1 C
15.01.2013 11:56 -3,1 C 87 % 1011,4 hPa 0,0 l/m 8,6 km/h (2 Bft) O-SO 112 -4,9 C -6,6 C
15.01.2013 12:01 -3,1 C 87 % 1011,3 hPa 0,0 l/m 9,0 km/h (2 Bft) SO 135 -4,9 C -6,7 C
15.01.2013 12:06 -3,1 C 86 % 1011,4 hPa 0,0 l/m 3,6 km/h (1 Bft) S 180 -5,1 C -3,1 C
15.01.2013 12:11 -3,2 C 86 % 1011,5 hPa 0,0 l/m 6,8 km/h (2 Bft) SO 135 -5,2 C -6,0 C
15.01.2013 12:16 -3,4 C 87 % 1011,4 hPa 0,0 l/m 8,6 km/h (2 Bft) SO 135 -5,2 C -6,9 C
15.01.2013 12:21 -3,4 C 87 % 1011,5 hPa 0,0 l/m 6,5 km/h (2 Bft) SO 135 -5,2 C -6,2 C
15.01.2013 12:26 -3,4 C 87 % 1011,5 hPa 0,0 l/m 4,0 km/h (1 Bft) SO 135 -5,2 C -3,4 C
15.01.2013 12:31 -3,5 C 87 % 1011,5 hPa 0,0 l/m 9,4 km/h (2 Bft) S-SO 157 -5,3 C -7,3 C
15.01.2013 12:36 -3,5 C 87 % 1011,4 hPa 0,0 l/m 9,4 km/h (2 Bft) O 90 -5,3 C -7,3 C
15.01.2013 12:41 -3,5 C 87 % 1011,3 hPa 0,0 l/m 5,8 km/h (2 Bft) O-SO 112 -5,3 C -6,0 C
15.01.2013 12:46 -3,4 C 87 % 1011,2 hPa 0,0 l/m 2,5 km/h (1 Bft) NO 45 -5,2 C -3,4 C
15.01.2013 12:51 -3,3 C 87 % 1011,1 hPa 0,0 l/m 0,0 km/h (0 Bft) SO 135 -5,1 C -3,3 C
15.01.2013 12:56 -3,2 C 86 % 1011,3 hPa 0,0 l/m 2,9 km/h (1 Bft) S-SO 157 -5,2 C -3,2 C
15.01.2013 13:01 -3,2 C 86 % 1011,2 hPa 0,0 l/m 7,9 km/h (2 Bft) O 90 -5,2 C -6,5 C
15.01.2013 13:06 -3,2 C 86 % 1011,3 hPa 0,0 l/m 3,2 km/h (1 Bft) SO 135 -5,2 C -3,2 C
15.01.2013 13:11 -3,1 C 86 % 1011,1 hPa 0,0 l/m 1,8 km/h (1 Bft) O-SO 112 -5,1 C -3,1 C
15.01.2013 13:16 -3,1 C 86 % 1011,0 hPa 0,0 l/m 6,1 km/h (2 Bft) O-SO 112 -5,1 C -5,6 C
15.01.2013 13:21 -3,1 C 85 % 1011,0 hPa 0,0 l/m 2,5 km/h (1 Bft) O-SO 112 -5,3 C -3,1 C
15.01.2013 13:26 -3,2 C 85 % 1011,0 hPa 0,0 l/m 4,3 km/h (1 Bft) O-SO 112 -5,4 C -3,2 C
15.01.2013 13:31 -3,2 C 85 % 1010,9 hPa 0,0 l/m 1,4 km/h (1 Bft) O-NO 67 -5,4 C -3,2 C
15.01.2013 13:36 -3,1 C 85 % 1011,1 hPa 0,0 l/m 6,5 km/h (2 Bft) O-SO 112 -5,3 C -5,8 C
15.01.2013 13:41 -3,1 C 85 % 1011,0 hPa 0,0 l/m 6,8 km/h (2 Bft) SO 135 -5,3 C -5,9 C
15.01.2013 13:46 -3,1 C 85 % 1010,9 hPa 0,0 l/m 4,7 km/h (1 Bft) SO 135 -5,3 C -4,9 C
15.01.2013 13:51 -3,1 C 85 % 1010,9 hPa 0,0 l/m 3,2 km/h (1 Bft) SO 135 -5,3 C -3,1 C
15.01.2013 13:56 -3,1 C 85 % 1010,9 hPa 0,0 l/m 3,6 km/h (1 Bft) O-SO 112 -5,3 C -3,1 C
15.01.2013 14:01 -3,1 C 85 % 1010,8 hPa 0,0 l/m 3,6 km/h (1 Bft) SO 135 -5,3 C -3,1 C
15.01.2013 14:06 -3,2 C 85 % 1010,7 hPa 0,0 l/m 6,1 km/h (2 Bft) O-SO 112 -5,4 C -5,7 C
15.01.2013 14:11 -3,1 C 85 % 1010,5 hPa 0,0 l/m 7,9 km/h (2 Bft) O-SO 112 -5,3 C -6,3 C
15.01.2013 14:16 -3,2 C 85 % 1010,7 hPa 0,0 l/m 5,4 km/h (1 Bft) O 90 -5,4 C -5,4 C
15.01.2013 14:21 -3,2 C 85 % 1010,7 hPa 0,0 l/m 2,9 km/h (1 Bft) O-NO 67 -5,4 C -3,2 C
15.01.2013 14:26 -3,3 C 85 % 1010,4 hPa 0,0 l/m 3,6 km/h (1 Bft) SO 135 -5,5 C -3,3 C
15.01.2013 14:31 -3,4 C 85 % 1010,4 hPa 0,0 l/m 6,1 km/h (2 Bft) O 90 -5,5 C -6,0 C
15.01.2013 14:36 -3,5 C 85 % 1010,4 hPa 0,0 l/m 10,4 km/h (2 Bft) O-NO 67 -5,6 C -7,6 C
15.01.2013 14:41 -3,5 C 86 % 1010,5 hPa 0,0 l/m 7,9 km/h (2 Bft) O-SO 112 -5,5 C -6,8 C
15.01.2013 14:46 -3,6 C 86 % 1010,3 hPa 0,0 l/m 4,0 km/h (1 Bft) O-NO 67 -5,6 C -3,6 C
15.01.2013 14:51 -3,6 C 86 % 1010,4 hPa 0,0 l/m 4,0 km/h (1 Bft) O 90 -5,6 C -3,6 C
15.01.2013 14:56 -3,6 C 86 % 1010,4 hPa 0,0 l/m 4,7 km/h (1 Bft) SO 135 -5,6 C -5,5 C
15.01.2013 15:01 -3,6 C 86 % 1010,4 hPa 0,0 l/m 5,8 km/h (2 Bft) SO 135 -5,6 C -6,1 C
15.01.2013 15:06 -3,6 C 86 % 1010,5 hPa 0,0 l/m 6,1 km/h (2 Bft) SO 135 -5,6 C -6,2 C
15.01.2013 15:11 -3,7 C 86 % 1010,7 hPa 0,0 l/m 8,3 km/h (2 Bft) SO 135 -5,7 C -7,2 C
15.01.2013 15:16 -3,8 C 86 % 1010,7 hPa 0,0 l/m 10,8 km/h (2 Bft) O-SO 112 -5,8 C -8,1 C
15.01.2013 15:21 -3,9 C 86 % 1010,6 hPa 0,0 l/m 3,2 km/h (1 Bft) SO 135 -5,9 C -3,9 C
15.01.2013 15:26 -3,9 C 87 % 1010,6 hPa 0,0 l/m 5,0 km/h (1 Bft) SO 135 -5,7 C -6,0 C
15.01.2013 15:31 -4,1 C 87 % 1010,7 hPa 0,0 l/m 9,4 km/h (2 Bft) O-SO 112 -5,9 C -8,0 C
15.01.2013 15:36 -4,1 C 87 % 1010,6 hPa 0,0 l/m 2,9 km/h (1 Bft) O-SO 112 -5,9 C -4,1 C
15.01.2013 15:41 -4,1 C 87 % 1010,7 hPa 0,0 l/m 3,2 km/h (1 Bft) SO 135 -5,9 C -4,1 C
15.01.2013 15:46 -4,1 C 87 % 1010,9 hPa 0,0 l/m 8,3 km/h (2 Bft) O-SO 112 -5,9 C -7,7 C
15.01.2013 15:51 -4,1 C 87 % 1010,9 hPa 0,0 l/m 14,4 km/h (3 Bft) O-SO 112 -5,9 C -9,3 C
15.01.2013 15:56 -4,1 C 87 % 1011,0 hPa 0,0 l/m 14,4 km/h (3 Bft) SO 135 -5,9 C -9,3 C
15.01.2013 16:01 -4,2 C 87 % 1011,0 hPa 0,0 l/m 7,6 km/h (2 Bft) O-SO 112 -6,0 C -7,5 C
15.01.2013 16:06 -4,2 C 87 % 1011,1 hPa 0,0 l/m 14,0 km/h (3 Bft) SO 135 -6,0 C -9,4 C
15.01.2013 16:11 -4,4 C 88 % 1011,0 hPa 0,0 l/m 5,8 km/h (2 Bft) O-NO 67 -6,1 C -7,0 C
15.01.2013 16:16 -4,4 C 88 % 1011,3 hPa 0,0 l/m 5,4 km/h (1 Bft) O-SO 112 -6,1 C -6,8 C
15.01.2013 16:21 -4,4 C 88 % 1011,2 hPa 0,0 l/m 6,8 km/h (2 Bft) O-SO 112 -6,1 C -7,4 C
15.01.2013 16:26 -4,3 C 88 % 1011,3 hPa 0,0 l/m 4,7 km/h (1 Bft) O-SO 112 -6,0 C -6,3 C
15.01.2013 16:31 -4,2 C 88 % 1011,3 hPa 0,0 l/m 5,0 km/h (1 Bft) O-SO 112 -5,9 C -6,4 C
15.01.2013 16:36 -4,2 C 88 % 1011,3 hPa 0,0 l/m 4,0 km/h (1 Bft) O-SO 112 -5,9 C -4,2 C
15.01.2013 16:41 -4,2 C 88 % 1011,2 hPa 0,0 l/m 5,4 km/h (1 Bft) O-SO 112 -5,9 C -6,6 C
15.01.2013 16:46 -4,2 C 88 % 1011,3 hPa 0,0 l/m 5,0 km/h (1 Bft) SO 135 -5,9 C -6,4 C
15.01.2013 16:51 -4,2 C 88 % 1011,2 hPa 0,0 l/m 4,7 km/h (1 Bft) O-NO 67 -5,9 C -6,2 C
15.01.2013 16:56 -4,2 C 88 % 1011,3 hPa 0,0 l/m 2,9 km/h (1 Bft) O-NO 67 -5,9 C -4,2 C
15.01.2013 17:01 -4,2 C 88 % 1011,3 hPa 0,0 l/m 5,8 km/h (2 Bft) O-SO 112 -5,9 C -6,8 C
15.01.2013 17:06 -4,2 C 88 % 1011,2 hPa 0,0 l/m 8,3 km/h (2 Bft) O 90 -5,9 C -7,8 C
15.01.2013 17:11 -4,2 C 88 % 1011,3 hPa 0,0 l/m 3,6 km/h (1 Bft) O-SO 112 -5,9 C -4,2 C
15.01.2013 17:16 -4,2 C 88 % 1011,3 hPa 0,0 l/m 3,2 km/h (1 Bft) O-SO 112 -5,9 C -4,2 C
15.01.2013 17:21 -4,4 C 88 % 1011,1 hPa 0,0 l/m 1,8 km/h (1 Bft) O-SO 112 -6,1 C -4,4 C
15.01.2013 17:26 -4,5 C 88 % 1011,2 hPa 0,0 l/m 3,2 km/h (1 Bft) O-SO 112 -6,2 C -4,5 C
15.01.2013 17:31 -4,7 C 88 % 1011,2 hPa 0,0 l/m 2,9 km/h (1 Bft) O-NO 67 -6,4 C -4,7 C
15.01.2013 17:36 -4,7 C 88 % 1011,2 hPa 0,0 l/m 1,4 km/h (1 Bft) NO 45 -6,4 C -4,7 C
15.01.2013 17:41 -4,8 C 88 % 1011,5 hPa 0,0 l/m 4,3 km/h (1 Bft) O-NO 67 -6,5 C -4,8 C
15.01.2013 17:46 -4,9 C 88 % 1011,6 hPa 0,0 l/m 0,0 km/h (0 Bft) O-NO 67 -6,6 C -4,9 C
15.01.2013 17:51 -4,9 C 88 % 1011,5 hPa 0,0 l/m 2,5 km/h (1 Bft) NO 45 -6,6 C -4,9 C
15.01.2013 17:56 -4,9 C 89 % 1011,4 hPa 0,0 l/m 0,0 km/h (0 Bft) O-NO 67 -6,4 C -4,9 C
15.01.2013 18:01 -4,9 C 89 % 1011,4 hPa 0,0 l/m 2,2 km/h (1 Bft) O-NO 67 -6,4 C -4,9 C
15.01.2013 18:06 -4,9 C 89 % 1011,3 hPa 0,0 l/m 0,0 km/h (0 Bft) O-NO 67 -6,4 C -4,9 C
15.01.2013 18:11 -4,8 C 89 % 1011,3 hPa 0,0 l/m 5,8 km/h (2 Bft) O-NO 67 -6,3 C -7,4 C
15.01.2013 18:16 -4,7 C 89 % 1011,4 hPa 0,0 l/m 12,2 km/h (2 Bft) O-NO 67 -6,2 C -9,5 C
15.01.2013 18:21 -4,7 C 89 % 1011,4 hPa 0,0 l/m 9,7 km/h (2 Bft) O-NO 67 -6,2 C -8,8 C
15.01.2013 18:26 -4,6 C 89 % 1011,4 hPa 0,0 l/m 9,7 km/h (2 Bft) O-SO 112 -6,1 C -8,7 C
15.01.2013 18:31 -4,6 C 89 % 1011,3 hPa 0,0 l/m 11,9 km/h (2 Bft) O-NO 67 -6,1 C -9,3 C
15.01.2013 18:36 -4,6 C 89 % 1011,3 hPa 0,0 l/m 10,4 km/h (2 Bft) O-NO 67 -6,1 C -8,9 C
15.01.2013 18:41 -4,6 C 89 % 1011,4 hPa 0,0 l/m 4,0 km/h (1 Bft) SO 135 -6,1 C -4,6 C
15.01.2013 18:46 -4,6 C 89 % 1011,3 hPa 0,0 l/m 10,1 km/h (2 Bft) O-SO 112 -6,1 C -8,8 C
15.01.2013 18:51 -4,6 C 89 % 1011,3 hPa 0,0 l/m 5,0 km/h (1 Bft) O-SO 112 -6,1 C -6,8 C
15.01.2013 18:56 -4,6 C 89 % 1011,4 hPa 0,0 l/m 12,6 km/h (3 Bft) O-SO 112 -6,1 C -9,5 C
15.01.2013 19:01 -4,6 C 89 % 1011,3 hPa 0,0 l/m 10,1 km/h (2 Bft) SO 135 -6,1 C -8,8 C
15.01.2013 19:06 -4,6 C 89 % 1011,4 hPa 0,0 l/m 15,1 km/h (3 Bft) SO 135 -6,1 C -10,1 C
15.01.2013 19:11 -4,5 C 89 % 1011,4 hPa 0,0 l/m 3,6 km/h (1 Bft) SO 135 -6,0 C -4,5 C
15.01.2013 19:16 -4,5 C 89 % 1011,3 hPa 0,0 l/m 2,5 km/h (1 Bft) SO 135 -6,0 C -4,5 C
15.01.2013 19:21 -4,5 C 89 % 1011,3 hPa 0,0 l/m 11,2 km/h (2 Bft) SO 135 -6,0 C -9,0 C
15.01.2013 19:26 -4,5 C 89 % 1011,2 hPa 0,0 l/m 14,4 km/h (3 Bft) SO 135 -6,0 C -9,8 C
15.01.2013 19:31 -4,4 C 89 % 1011,3 hPa 0,0 l/m 12,6 km/h (3 Bft) O 90 -5,9 C -9,3 C
15.01.2013 19:36 -4,4 C 89 % 1011,2 hPa 0,0 l/m 5,8 km/h (2 Bft) O-SO 112 -5,9 C -7,0 C
15.01.2013 19:41 -4,4 C 89 % 1011,0 hPa 0,0 l/m 8,3 km/h (2 Bft) O 90 -5,9 C -8,0 C
15.01.2013 19:46 -4,4 C 89 % 1011,1 hPa 0,0 l/m 6,1 km/h (2 Bft) S-SO 157 -5,9 C -7,1 C
15.01.2013 19:51 -4,4 C 89 % 1011,4 hPa 0,0 l/m 7,6 km/h (2 Bft) SO 135 -5,9 C -7,8 C
15.01.2013 19:56 -4,2 C 89 % 1011,5 hPa 0,0 l/m 9,4 km/h (2 Bft) S-SO 157 -5,7 C -8,1 C
15.01.2013 20:01 -4,2 C 89 % 1011,5 hPa 0,0 l/m 6,8 km/h (2 Bft) SO 135 -5,7 C -7,2 C
15.01.2013 20:06 -4,2 C 89 % 1011,5 hPa 0,0 l/m 9,4 km/h (2 Bft) O-SO 112 -5,7 C -8,1 C
15.01.2013 20:11 -4,2 C 89 % 1011,3 hPa 0,0 l/m 6,1 km/h (2 Bft) SO 135 -5,7 C -6,9 C
15.01.2013 20:16 -4,2 C 89 % 1011,3 hPa 0,0 l/m 12,6 km/h (3 Bft) O-NO 67 -5,7 C -9,0 C
15.01.2013 20:21 -4,2 C 89 % 1011,2 hPa 0,0 l/m 7,2 km/h (2 Bft) O-SO 112 -5,7 C -7,4 C
15.01.2013 20:26 -4,2 C 89 % 1011,3 hPa 0,0 l/m 2,9 km/h (1 Bft) O-SO 112 -5,7 C -4,2 C
15.01.2013 20:31 -4,1 C 89 % 1011,3 hPa 0,0 l/m 4,7 km/h (1 Bft) SO 135 -5,6 C -6,1 C
15.01.2013 20:36 -4,1 C 89 % 1011,2 hPa 0,0 l/m 3,6 km/h (1 Bft) O-SO 112 -5,6 C -4,1 C
15.01.2013 20:41 -4,1 C 89 % 1011,1 hPa 0,0 l/m 3,6 km/h (1 Bft) O-SO 112 -5,6 C -4,1 C
15.01.2013 20:46 -4,1 C 89 % 1011,1 hPa 0,0 l/m 3,6 km/h (1 Bft) O-NO 67 -5,6 C -4,1 C
15.01.2013 20:51 -4,1 C 89 % 1011,1 hPa 0,0 l/m 2,5 km/h (1 Bft) O-NO 67 -5,6 C -4,1 C
15.01.2013 20:56 -4,0 C 89 % 1011,0 hPa 0,0 l/m 10,4 km/h (2 Bft) O 90 -5,5 C -8,2 C
15.01.2013 21:01 -3,9 C 89 % 1011,0 hPa 0,0 l/m 8,3 km/h (2 Bft) O-SO 112 -5,4 C -7,4 C
15.01.2013 21:06 -3,9 C 89 % 1011,0 hPa 0,0 l/m 5,4 km/h (1 Bft) SO 135 -5,4 C -6,2 C
15.01.2013 21:11 -3,9 C 89 % 1011,0 hPa 0,0 l/m 10,1 km/h (2 Bft) O 90 -5,4 C -8,0 C
15.01.2013 21:16 -3,9 C 89 % 1010,9 hPa 0,0 l/m 9,7 km/h (2 Bft) O 90 -5,4 C -7,9 C
15.01.2013 21:21 -3,9 C 88 % 1011,1 hPa 0,0 l/m 4,0 km/h (1 Bft) S-SO 157 -5,6 C -3,9 C
15.01.2013 21:26 -3,8 C 88 % 1011,1 hPa 0,0 l/m 9,0 km/h (2 Bft) NO 45 -5,5 C -7,5 C
15.01.2013 21:31 -3,8 C 88 % 1011,0 hPa 0,0 l/m 6,5 km/h (2 Bft) O-SO 112 -5,5 C -6,6 C
15.01.2013 21:36 -3,7 C 89 % 1011,0 hPa 0,0 l/m 4,3 km/h (1 Bft) O-SO 112 -5,2 C -3,7 C
15.01.2013 21:41 -3,7 C 88 % 1011,0 hPa 0,0 l/m 4,7 km/h (1 Bft) O-SO 112 -5,4 C -5,6 C
15.01.2013 21:46 -3,7 C 88 % 1011,0 hPa 0,0 l/m 2,5 km/h (1 Bft) O 90 -5,4 C -3,7 C
15.01.2013 21:51 -3,7 C 88 % 1010,8 hPa 0,0 l/m 9,4 km/h (2 Bft) SO 135 -5,4 C -7,6 C
15.01.2013 21:56 -3,6 C 88 % 1010,8 hPa 0,0 l/m 3,6 km/h (1 Bft) O-SO 112 -5,3 C -3,6 C
15.01.2013 22:01 -3,7 C 88 % 1010,9 hPa 0,0 l/m 5,0 km/h (1 Bft) O 90 -5,4 C -5,8 C
15.01.2013 22:06 -3,7 C 88 % 1010,6 hPa 0,0 l/m 4,0 km/h (1 Bft) O-NO 67 -5,4 C -3,7 C
15.01.2013 22:11 -3,7 C 88 % 1010,5 hPa 0,0 l/m 10,1 km/h (2 Bft) O-SO 112 -5,4 C -7,8 C
15.01.2013 22:16 -3,7 C 88 % 1010,7 hPa 0,0 l/m 4,7 km/h (1 Bft) O-NO 67 -5,4 C -5,6 C
15.01.2013 22:21 -3,7 C 88 % 1010,6 hPa 0,0 l/m 0,0 km/h (0 Bft) O 90 -5,4 C -3,7 C
15.01.2013 22:26 -3,7 C 88 % 1010,8 hPa 0,0 l/m 2,2 km/h (1 Bft) O 90 -5,4 C -3,7 C
15.01.2013 22:31 -3,7 C 88 % 1010,7 hPa 0,0 l/m 1,8 km/h (1 Bft) SO 135 -5,4 C -3,7 C
15.01.2013 22:36 -3,7 C 89 % 1010,7 hPa 0,0 l/m 2,2 km/h (1 Bft) NO 45 -5,2 C -3,7 C
15.01.2013 22:41 -3,7 C 89 % 1010,9 hPa 0,0 l/m 10,8 km/h (2 Bft) O-SO 112 -5,2 C -8,0 C
15.01.2013 22:46 -3,7 C 89 % 1010,8 hPa 0,0 l/m 6,1 km/h (2 Bft) O-SO 112 -5,2 C -6,3 C
15.01.2013 22:51 -3,7 C 89 % 1010,9 hPa 0,0 l/m 2,5 km/h (1 Bft) NO 45 -5,2 C -3,7 C
15.01.2013 22:56 -3,7 C 89 % 1010,8 hPa 0,0 l/m 0,0 km/h (0 Bft) O-NO 67 -5,2 C -3,7 C
15.01.2013 23:01 -3,7 C 89 % 1010,9 hPa 0,0 l/m 0,0 km/h (0 Bft) O-SO 112 -5,2 C -3,7 C
15.01.2013 23:06 -3,7 C 89 % 1010,9 hPa 0,0 l/m 3,2 km/h (1 Bft) O 90 -5,2 C -3,7 C
15.01.2013 23:11 -3,7 C 89 % 1011,0 hPa 0,0 l/m 7,6 km/h (2 Bft) O-NO 67 -5,2 C -6,9 C
15.01.2013 23:16 -3,7 C 89 % 1010,8 hPa 0,0 l/m 9,7 km/h (2 Bft) O 90 -5,2 C -7,6 C
15.01.2013 23:21 -3,7 C 89 % 1010,7 hPa 0,0 l/m 5,8 km/h (2 Bft) O-SO 112 -5,2 C -6,2 C
15.01.2013 23:26 -3,7 C 89 % 1010,9 hPa 0,0 l/m 9,7 km/h (2 Bft) O 90 -5,2 C -7,6 C
15.01.2013 23:31 -3,7 C 89 % 1010,7 hPa 0,0 l/m 7,2 km/h (2 Bft) O 90 -5,2 C -6,8 C
15.01.2013 23:36 -3,7 C 89 % 1010,8 hPa 0,0 l/m 1,4 km/h (1 Bft) O-SO 112 -5,2 C -3,7 C
15.01.2013 23:41 -3,6 C 89 % 1010,8 hPa 0,0 l/m 7,6 km/h (2 Bft) O-NO 67 -5,1 C -6,8 C
15.01.2013 23:46 -3,6 C 89 % 1010,6 hPa 0,0 l/m 6,1 km/h (2 Bft) S-SO 157 -5,1 C -6,2 C
15.01.2013 23:51 -3,6 C 89 % 1010,7 hPa 0,0 l/m 4,0 km/h (1 Bft) O 90 -5,1 C -3,6 C
15.01.2013 23:56 -3,6 C 89 % 1010,7 hPa 0,0 l/m 3,6 km/h (1 Bft) O-SO 112 -5,1 C -3,6 C
_ Min-Zeit 07:51 13:21 14:46 - 00:11 - - 17:46 19:06
Minimum _ -5,0 C 85 % 1010,3 hPa - 0,0 km/h (0 Bft) - - -6,6 C -10,1 C
_ Max-Zeit 11:51 09:21 02:41 00:01 19:06 - - 01:06 11:46
Maximum _ -3,0 C 91 % 1012,6 hPa 0,0 l/m 15,1 km/h
SO (3 Bft)
- - -4,6 C -3,1 C
Durchschnitt _ -4,0 C 88 % 1011,4 hPa #0,0 l/m 4,4 km/h (1 Bft) SO - -5,6 C -5,3 C
(c) by David Heller